createdAt,value
2017-06-16T00:01:43.647Z,17.70
2017-06-16T00:04:12.711Z,17.60
2017-06-16T00:06:41.070Z,17.60
2017-06-16T00:09:09.400Z,17.60
2017-06-16T00:11:37.731Z,17.60
2017-06-16T00:14:06.052Z,17.60
2017-06-16T00:16:34.356Z,17.60
2017-06-16T00:19:02.703Z,17.50
2017-06-16T00:21:31.939Z,17.50
2017-06-16T00:24:00.278Z,17.50
2017-06-16T00:26:29.375Z,17.40
2017-06-16T00:28:57.759Z,17.40
2017-06-16T00:31:26.821Z,17.30
2017-06-16T00:33:55.125Z,17.30
2017-06-16T00:36:23.507Z,17.30
2017-06-16T00:38:51.879Z,17.30
2017-06-16T00:41:20.972Z,17.20
2017-06-16T00:43:50.075Z,17.10
2017-06-16T00:46:18.431Z,17.10
2017-06-16T00:48:47.502Z,17.00
2017-06-16T00:51:16.035Z,17.00
2017-06-16T00:53:44.394Z,17.00
2017-06-16T00:56:13.470Z,16.90
2017-06-16T00:58:41.798Z,16.90
2017-06-16T01:01:10.102Z,16.90
2017-06-16T01:03:38.421Z,16.90
2017-06-16T01:06:07.515Z,16.80
2017-06-16T01:08:36.595Z,16.80
2017-06-16T01:11:05.091Z,16.70
2017-06-16T01:13:33.466Z,16.70
2017-06-16T01:16:01.783Z,16.70
2017-06-16T01:18:30.109Z,16.70
2017-06-16T01:20:59.217Z,16.60
2017-06-16T01:23:28.310Z,16.60
2017-06-16T01:25:56.639Z,16.60
2017-06-16T01:28:24.949Z,16.60
2017-06-16T01:30:54.036Z,16.60
2017-06-16T01:33:22.435Z,16.60
2017-06-16T01:35:51.642Z,16.60
2017-06-16T01:38:20.736Z,16.60
2017-06-16T01:40:49.823Z,16.60
2017-06-16T01:43:19.435Z,16.60
2017-06-16T01:45:47.820Z,16.60
2017-06-16T01:48:17.003Z,16.60
2017-06-16T01:50:45.320Z,16.50
2017-06-16T01:53:13.663Z,16.60
2017-06-16T01:55:41.991Z,16.50
2017-06-16T01:58:10.320Z,16.50
2017-06-16T02:00:39.511Z,16.60
2017-06-16T02:03:08.579Z,16.50
2017-06-16T02:05:36.979Z,16.50
2017-06-16T02:08:06.174Z,16.50
2017-06-16T02:10:35.253Z,16.50
2017-06-16T02:13:03.661Z,16.40
2017-06-16T02:15:31.971Z,16.50
2017-06-16T02:18:00.307Z,16.40
2017-06-16T02:20:28.647Z,16.40
2017-06-16T02:22:56.958Z,16.40
2017-06-16T02:25:26.059Z,16.30
2017-06-16T02:27:54.440Z,16.30
2017-06-16T02:30:22.818Z,16.40
2017-06-16T02:32:51.192Z,16.30
2017-06-16T02:35:19.570Z,16.30
2017-06-16T02:37:48.662Z,16.30
2017-06-16T02:40:17.148Z,16.30
2017-06-16T02:42:45.480Z,16.30
2017-06-16T02:45:13.899Z,16.30
2017-06-16T02:47:42.283Z,16.30
2017-06-16T02:50:11.371Z,16.30
2017-06-16T02:52:39.747Z,16.30
2017-06-16T02:55:08.839Z,16.40
2017-06-16T02:57:37.135Z,16.30
2017-06-16T03:00:05.499Z,16.40
2017-06-16T03:02:34.564Z,16.50
2017-06-16T03:05:02.907Z,16.50
2017-06-16T03:07:31.220Z,16.50
2017-06-16T03:09:59.618Z,16.50
2017-06-16T03:12:28.824Z,16.50
2017-06-16T03:14:57.893Z,16.40
2017-06-16T03:17:26.291Z,16.40
2017-06-16T03:19:54.780Z,16.50
2017-06-16T03:22:39.809Z,16.50
2017-06-16T03:25:08.904Z,16.40
2017-06-16T03:27:37.302Z,16.40
2017-06-16T03:30:05.699Z,16.50
2017-06-16T03:32:33.985Z,16.50
2017-06-16T03:35:02.350Z,16.50
2017-06-16T03:37:30.657Z,16.50
2017-06-16T03:39:59.016Z,16.50
2017-06-16T03:42:27.386Z,16.40
2017-06-16T03:44:55.759Z,16.50
2017-06-16T03:47:24.130Z,16.50
2017-06-16T03:49:53.638Z,16.50
2017-06-16T03:52:22.018Z,16.50
2017-06-16T03:54:50.394Z,16.60
2017-06-16T03:57:18.803Z,16.60
2017-06-16T03:59:47.466Z,16.60
2017-06-16T04:02:15.766Z,16.70
2017-06-16T04:04:44.119Z,16.80
2017-06-16T04:07:12.497Z,16.80
2017-06-16T04:09:40.820Z,16.80
2017-06-16T04:12:09.181Z,16.90
2017-06-16T04:14:37.534Z,16.90
2017-06-16T04:17:06.621Z,16.90
2017-06-16T04:19:34.970Z,16.90
2017-06-16T04:22:03.287Z,16.90
2017-06-16T04:24:31.639Z,17.00
2017-06-16T04:27:00.722Z,17.20
2017-06-16T04:29:29.235Z,17.10
2017-06-16T04:31:57.622Z,17.30
2017-06-16T04:34:25.930Z,17.40
2017-06-16T04:36:54.350Z,17.50
2017-06-16T04:39:22.747Z,17.50
2017-06-16T04:41:51.103Z,17.60
2017-06-16T04:44:19.460Z,17.70
2017-06-16T04:46:48.597Z,17.70
2017-06-16T04:49:17.700Z,17.50
2017-06-16T04:51:46.060Z,17.50
2017-06-16T04:54:14.410Z,17.50
2017-06-16T04:56:43.535Z,17.30
2017-06-16T04:59:12.609Z,17.20
2017-06-16T05:01:41.718Z,17.20
2017-06-16T05:04:10.818Z,17.20
2017-06-16T05:06:39.180Z,17.10
2017-06-16T05:09:07.513Z,17.10
2017-06-16T05:11:35.830Z,17.10
2017-06-16T05:14:04.636Z,17.20
2017-06-16T05:16:33.022Z,17.20
2017-06-16T05:19:01.399Z,17.30
2017-06-16T05:21:29.772Z,17.30
2017-06-16T05:23:58.131Z,17.40
2017-06-16T05:26:26.515Z,17.40
2017-06-16T05:28:54.868Z,17.50
2017-06-16T05:31:23.185Z,17.60
2017-06-16T05:33:52.390Z,17.60
2017-06-16T05:36:20.759Z,17.50
2017-06-16T05:38:49.140Z,17.60
2017-06-16T05:41:17.557Z,17.80
2017-06-16T05:43:45.911Z,17.90
2017-06-16T05:46:14.255Z,18.00
2017-06-16T05:48:43.359Z,18.10
2017-06-16T05:51:11.749Z,18.10
2017-06-16T05:53:40.127Z,18.10
2017-06-16T05:56:08.487Z,17.90
2017-06-16T05:58:36.876Z,17.90
2017-06-16T06:01:06.027Z,17.80
2017-06-16T06:03:34.621Z,17.80
2017-06-16T06:06:03.026Z,17.80
2017-06-16T06:08:32.782Z,18.00
2017-06-16T06:11:01.126Z,18.00
2017-06-16T06:13:29.506Z,18.20
2017-06-16T06:15:57.820Z,18.40
2017-06-16T06:18:26.146Z,18.70
2017-06-16T06:20:55.351Z,18.80
2017-06-16T06:23:23.663Z,18.70
2017-06-16T06:25:52.042Z,18.90
2017-06-16T06:28:20.361Z,19.10
2017-06-16T06:30:48.761Z,19.30
2017-06-16T06:33:17.854Z,19.30
2017-06-16T06:35:46.162Z,19.30
2017-06-16T06:38:14.522Z,19.30
2017-06-16T06:40:42.887Z,19.20
2017-06-16T06:43:11.326Z,19.20
2017-06-16T06:45:39.664Z,19.20
2017-06-16T06:48:08.147Z,19.20
2017-06-16T06:50:36.499Z,19.00
2017-06-16T06:53:04.942Z,18.90
2017-06-16T06:55:33.665Z,18.70
2017-06-16T06:58:02.059Z,18.60
2017-06-16T07:00:30.427Z,18.70
2017-06-16T07:02:59.499Z,18.80
2017-06-16T07:05:34.592Z,18.90
2017-06-16T07:08:02.934Z,18.80
2017-06-16T07:10:32.314Z,18.90
2017-06-16T07:13:01.627Z,18.80
2017-06-16T07:15:30.723Z,18.70
2017-06-16T07:17:59.051Z,18.70
2017-06-16T07:20:27.483Z,18.60
2017-06-16T07:22:55.858Z,18.70
2017-06-16T07:25:24.195Z,18.80
2017-06-16T07:27:52.518Z,18.80
2017-06-16T07:30:20.884Z,19.10
2017-06-16T07:32:49.210Z,19.20
2017-06-16T07:35:17.545Z,19.20
2017-06-16T07:37:46.622Z,19.20
2017-06-16T07:40:15.015Z,19.10
2017-06-16T07:42:43.395Z,19.30
2017-06-16T07:45:11.771Z,19.50
2017-06-16T07:47:40.143Z,19.50
2017-06-16T07:50:08.487Z,19.70
2017-06-16T07:52:37.695Z,19.90
2017-06-16T07:55:06.026Z,19.90
2017-06-16T07:57:34.341Z,20.10
2017-06-16T08:00:02.755Z,20.20
2017-06-16T08:02:31.832Z,20.50
2017-06-16T08:05:00.927Z,20.20
2017-06-16T08:07:30.003Z,20.30
2017-06-16T08:09:59.131Z,20.30
2017-06-16T08:12:27.507Z,20.20
2017-06-16T08:14:56.618Z,20.50
2017-06-16T08:17:25.699Z,20.60
2017-06-16T08:19:54.014Z,20.60
2017-06-16T08:22:22.355Z,20.50
2017-06-16T08:24:50.738Z,20.60
2017-06-16T08:27:19.046Z,20.80
2017-06-16T08:29:47.371Z,20.80
2017-06-16T08:32:15.706Z,20.80
2017-06-16T08:34:44.006Z,20.70
2017-06-16T08:37:12.326Z,20.60
2017-06-16T08:39:40.666Z,20.30
2017-06-16T08:42:08.984Z,20.00
2017-06-16T08:44:37.338Z,19.90
2017-06-16T08:47:05.635Z,20.00
2017-06-16T08:49:34.111Z,19.90
2017-06-16T08:52:03.176Z,20.30
2017-06-16T08:54:31.660Z,20.30
2017-06-16T08:57:00.054Z,20.70
2017-06-16T08:59:28.533Z,20.80
2017-06-16T09:01:56.858Z,21.10
2017-06-16T09:04:25.141Z,21.20
2017-06-16T09:06:53.503Z,21.20
2017-06-16T09:09:21.844Z,21.10
2017-06-16T09:11:50.204Z,21.00
2017-06-16T09:14:18.611Z,20.60
2017-06-16T09:16:47.179Z,20.40
2017-06-16T09:19:16.292Z,19.90
2017-06-16T09:21:44.663Z,19.90
2017-06-16T09:24:13.006Z,19.80
2017-06-16T09:26:41.327Z,19.50
2017-06-16T09:29:09.664Z,19.40
2017-06-16T09:31:38.774Z,19.20
2017-06-16T09:34:07.855Z,19.00
2017-06-16T09:36:36.204Z,19.00
2017-06-16T09:39:04.522Z,19.00
2017-06-16T09:41:33.599Z,19.10
2017-06-16T09:44:01.923Z,19.00
2017-06-16T09:46:30.499Z,19.30
2017-06-16T09:48:58.882Z,19.40
2017-06-16T09:51:27.247Z,19.70
2017-06-16T09:53:56.313Z,20.30
2017-06-16T09:56:25.429Z,20.50
2017-06-16T09:58:54.553Z,20.60
2017-06-16T10:01:23.087Z,20.60
2017-06-16T10:03:51.399Z,20.60
2017-06-16T10:06:19.745Z,20.60
2017-06-16T10:08:48.818Z,20.80
2017-06-16T10:11:17.127Z,20.70
2017-06-16T10:13:45.469Z,21.00
2017-06-16T10:16:13.934Z,21.20
2017-06-16T10:18:42.382Z,21.50
2017-06-16T10:21:10.730Z,21.40
2017-06-16T10:23:39.022Z,21.30
2017-06-16T10:26:07.381Z,21.20
2017-06-16T10:28:36.103Z,21.10
2017-06-16T10:31:04.426Z,20.90
2017-06-16T10:33:32.743Z,20.70
2017-06-16T10:36:01.122Z,20.50
2017-06-16T10:38:29.461Z,20.30
2017-06-16T10:40:57.779Z,20.30
2017-06-16T10:43:26.865Z,20.50
2017-06-16T10:45:55.940Z,20.80
2017-06-16T10:48:24.381Z,20.70
2017-06-16T10:50:52.834Z,21.10
2017-06-16T10:53:21.189Z,21.30
2017-06-16T10:55:49.510Z,21.50
2017-06-16T10:58:17.847Z,21.60
2017-06-16T11:00:47.053Z,21.80
2017-06-16T11:03:16.139Z,21.70
2017-06-16T11:05:45.231Z,21.60
2017-06-16T11:08:14.302Z,21.60
2017-06-16T11:10:43.459Z,21.50
2017-06-16T11:13:11.774Z,21.80
2017-06-16T11:15:40.823Z,22.00
2017-06-16T11:18:09.128Z,22.20
2017-06-16T11:20:37.452Z,22.40
2017-06-16T11:23:06.550Z,22.40
2017-06-16T11:25:34.867Z,22.30
2017-06-16T11:28:03.190Z,22.60
2017-06-16T11:30:31.490Z,22.90
2017-06-16T11:32:59.862Z,22.80
2017-06-16T11:35:28.167Z,22.50
2017-06-16T11:37:56.475Z,22.30
2017-06-16T11:40:24.816Z,21.60
2017-06-16T11:42:53.171Z,20.90
2017-06-16T11:45:22.255Z,20.90
2017-06-16T11:47:51.371Z,21.30
2017-06-16T11:50:19.791Z,21.20
2017-06-16T11:52:48.105Z,21.30
2017-06-16T11:55:16.572Z,21.50
2017-06-16T11:57:44.979Z,21.80
2017-06-16T12:00:13.327Z,22.00
2017-06-16T12:02:42.408Z,21.40
2017-06-16T12:05:11.634Z,21.20
2017-06-16T12:07:39.985Z,21.20
2017-06-16T12:10:08.277Z,21.10
2017-06-16T12:12:37.441Z,21.00
2017-06-16T12:15:05.860Z,20.90
2017-06-16T12:17:34.241Z,21.00
2017-06-16T12:20:02.720Z,21.00
2017-06-16T12:22:31.794Z,21.10
2017-06-16T12:25:00.130Z,21.10
2017-06-16T12:27:28.438Z,21.20
2017-06-16T12:29:56.879Z,21.20
2017-06-16T12:32:25.334Z,21.20
2017-06-16T12:34:53.773Z,21.20
2017-06-16T12:37:22.290Z,21.20
2017-06-16T12:39:50.661Z,21.30
2017-06-16T12:42:19.158Z,21.50
2017-06-16T12:44:47.478Z,21.50
2017-06-16T12:47:15.821Z,21.60
2017-06-16T12:49:44.153Z,21.50
2017-06-16T12:52:12.550Z,21.80
2017-06-16T12:54:41.027Z,21.70
2017-06-16T12:57:09.419Z,21.50
2017-06-16T12:59:37.720Z,21.50
2017-06-16T13:02:06.010Z,21.60
2017-06-16T13:04:34.325Z,21.30
2017-06-16T13:07:02.650Z,20.90
2017-06-16T13:09:31.007Z,20.70
2017-06-16T13:11:59.471Z,20.10
2017-06-16T13:14:28.546Z,19.10
2017-06-16T13:16:57.672Z,18.90
2017-06-16T13:19:26.768Z,19.00
2017-06-16T13:21:55.105Z,19.00
2017-06-16T13:24:23.428Z,19.00
2017-06-16T13:26:51.791Z,19.20
2017-06-16T13:29:20.113Z,19.40
2017-06-16T13:31:48.395Z,19.70
2017-06-16T13:34:16.815Z,19.90
2017-06-16T13:36:45.119Z,20.20
2017-06-16T13:39:13.465Z,20.50
2017-06-16T13:41:42.547Z,20.70
2017-06-16T13:44:11.668Z,20.30
2017-06-16T13:46:41.663Z,20.20
2017-06-16T13:49:09.987Z,20.20
2017-06-16T13:51:38.332Z,20.30
2017-06-16T13:54:07.443Z,20.20
2017-06-16T13:56:36.635Z,20.40
2017-06-16T13:59:05.731Z,20.50
2017-06-16T14:01:34.123Z,20.50
2017-06-16T14:04:02.685Z,20.60
2017-06-16T14:06:31.007Z,20.80
2017-06-16T14:08:59.342Z,20.80
2017-06-16T14:11:27.656Z,20.80
2017-06-16T14:13:55.988Z,20.80
2017-06-16T14:16:24.299Z,20.90
2017-06-16T14:18:52.651Z,21.00
2017-06-16T14:21:20.993Z,21.00
2017-06-16T14:23:49.403Z,21.20
2017-06-16T14:26:17.748Z,21.30
2017-06-16T14:28:46.026Z,21.50
2017-06-16T14:31:14.371Z,21.60
2017-06-16T14:33:42.705Z,21.70
2017-06-16T14:36:11.027Z,21.40
2017-06-16T14:38:39.396Z,21.00
2017-06-16T14:41:07.694Z,20.80
2017-06-16T14:43:36.019Z,20.80
2017-06-16T14:46:04.335Z,20.80
2017-06-16T14:48:32.766Z,21.10
2017-06-16T14:51:01.093Z,20.90
2017-06-16T14:53:29.402Z,20.50
2017-06-16T14:55:58.502Z,20.10
2017-06-16T14:58:27.576Z,19.80
2017-06-16T15:00:55.982Z,19.80
2017-06-16T15:03:24.375Z,19.80
2017-06-16T15:05:52.698Z,19.80
2017-06-16T15:08:21.018Z,19.90
2017-06-16T15:10:49.314Z,20.00
2017-06-16T15:13:17.682Z,20.10
2017-06-16T15:15:46.751Z,20.20
2017-06-16T15:18:15.832Z,20.00
2017-06-16T15:20:44.178Z,20.00
2017-06-16T15:23:12.498Z,19.70
2017-06-16T15:25:40.811Z,19.40
2017-06-16T15:28:09.187Z,19.20
2017-06-16T15:30:37.482Z,18.90
2017-06-16T15:33:05.808Z,18.00
2017-06-16T15:35:34.099Z,17.50
2017-06-16T15:38:02.560Z,17.30
2017-06-16T15:40:30.902Z,17.30
2017-06-16T15:42:59.216Z,17.60
2017-06-16T15:45:28.394Z,18.00
2017-06-16T15:47:56.839Z,18.00
2017-06-16T15:50:25.165Z,17.90
2017-06-16T15:52:53.598Z,17.80
2017-06-16T15:55:21.916Z,17.80
2017-06-16T15:57:50.254Z,18.00
2017-06-16T16:00:18.599Z,18.10
2017-06-16T16:02:46.926Z,18.30
2017-06-16T16:05:15.275Z,18.40
2017-06-16T16:07:43.742Z,18.40
2017-06-16T16:10:12.116Z,18.40
2017-06-16T16:12:41.220Z,18.50
2017-06-16T16:15:09.602Z,18.50
2017-06-16T16:17:38.817Z,18.80
2017-06-16T16:20:07.259Z,18.90
2017-06-16T16:22:35.669Z,18.90
2017-06-16T16:25:04.014Z,18.80
2017-06-16T16:27:33.760Z,18.80
2017-06-16T16:30:02.134Z,18.80
2017-06-16T16:32:30.459Z,18.80
2017-06-16T16:34:58.970Z,18.90
2017-06-16T16:37:27.346Z,18.80
2017-06-16T16:39:55.658Z,18.70
2017-06-16T16:42:24.060Z,18.80
2017-06-16T16:44:52.403Z,18.80
2017-06-16T16:47:20.731Z,18.70
2017-06-16T16:49:49.077Z,18.50
2017-06-16T16:52:17.450Z,18.40
2017-06-16T16:54:45.794Z,18.20
2017-06-16T16:57:14.109Z,18.20
2017-06-16T16:59:42.439Z,18.20
2017-06-16T17:02:11.495Z,18.20
2017-06-16T17:04:39.828Z,18.20
2017-06-16T17:07:08.152Z,18.30
2017-06-16T17:09:36.487Z,18.30
2017-06-16T17:12:04.791Z,18.40
2017-06-16T17:14:33.277Z,18.40
2017-06-16T17:17:01.683Z,18.30
2017-06-16T17:19:30.001Z,18.20
2017-06-16T17:21:58.780Z,18.10
2017-06-16T17:24:27.954Z,18.10
2017-06-16T17:26:57.085Z,18.10
2017-06-16T17:29:25.431Z,18.10
2017-06-16T17:31:54.037Z,18.10
2017-06-16T17:34:22.542Z,18.00
2017-06-16T17:36:51.075Z,18.00
2017-06-16T17:39:19.451Z,17.90
2017-06-16T17:41:48.578Z,18.00
2017-06-16T17:44:16.888Z,17.90
2017-06-16T17:46:45.178Z,17.90
2017-06-16T17:49:14.401Z,17.90
2017-06-16T17:51:43.531Z,17.80
2017-06-16T17:54:11.842Z,17.80
2017-06-16T17:56:40.959Z,17.70
2017-06-16T17:59:09.349Z,17.70
2017-06-16T18:01:37.824Z,17.70
2017-06-16T18:04:06.196Z,17.60
2017-06-16T18:06:34.677Z,17.70
2017-06-16T18:09:03.000Z,17.70
2017-06-16T18:11:31.294Z,17.60
2017-06-16T18:13:59.623Z,17.50
2017-06-16T18:16:27.934Z,17.50
2017-06-16T18:18:56.279Z,17.60
2017-06-16T18:21:25.358Z,17.50
2017-06-16T18:23:54.429Z,17.50
2017-06-16T18:26:23.338Z,17.40
2017-06-16T18:28:51.659Z,17.50
2017-06-16T18:31:20.003Z,17.50
2017-06-16T18:33:48.382Z,17.40
2017-06-16T18:36:16.688Z,17.50
2017-06-16T18:38:45.071Z,17.50
2017-06-16T18:41:13.398Z,17.40
2017-06-16T18:43:41.800Z,17.30
2017-06-16T18:46:10.106Z,17.20
2017-06-16T18:48:38.414Z,17.20
2017-06-16T18:51:06.815Z,17.20
2017-06-16T18:53:35.878Z,17.10
2017-06-16T18:56:04.383Z,17.00
2017-06-16T18:58:33.459Z,17.00
2017-06-16T19:01:01.975Z,16.90
2017-06-16T19:03:30.309Z,16.90
2017-06-16T19:05:58.720Z,16.80
2017-06-16T19:08:27.090Z,16.80
2017-06-16T19:10:56.169Z,16.70
2017-06-16T19:13:24.459Z,16.60
2017-06-16T19:15:52.802Z,16.70
2017-06-16T19:18:21.098Z,16.70
2017-06-16T19:20:49.407Z,16.60
2017-06-16T19:23:17.736Z,16.60
2017-06-16T19:25:46.040Z,16.60
2017-06-16T19:28:14.411Z,16.50
2017-06-16T19:30:42.711Z,16.60
2017-06-16T19:33:11.037Z,16.60
2017-06-16T19:35:39.387Z,16.50
2017-06-16T19:38:08.444Z,16.50
2017-06-16T19:40:37.535Z,16.50
2017-06-16T19:43:05.882Z,16.40
2017-06-16T19:45:34.173Z,16.40
2017-06-16T19:48:02.499Z,16.30
2017-06-16T19:50:30.866Z,16.30
2017-06-16T19:52:59.955Z,16.30
2017-06-16T19:55:28.338Z,16.30
2017-06-16T19:57:57.431Z,16.30
2017-06-16T20:00:25.762Z,16.30
2017-06-16T20:02:54.166Z,16.30
2017-06-16T20:05:23.294Z,16.30
2017-06-16T20:07:51.582Z,16.20
2017-06-16T20:10:19.891Z,16.20
2017-06-16T20:12:48.317Z,16.20
2017-06-16T20:15:16.697Z,16.20
2017-06-16T20:17:45.775Z,16.10
2017-06-16T20:20:15.021Z,16.10
2017-06-16T20:22:43.371Z,16.10
2017-06-16T20:25:11.734Z,16.10
2017-06-16T20:27:40.058Z,16.20
2017-06-16T20:30:08.491Z,16.20
2017-06-16T20:32:37.700Z,16.20
2017-06-16T20:35:06.170Z,16.10
2017-06-16T20:37:34.487Z,16.10
2017-06-16T20:40:02.834Z,16.00
2017-06-16T20:42:31.606Z,16.00
2017-06-16T20:45:00.018Z,15.90
2017-06-16T20:47:28.327Z,15.90
2017-06-16T20:49:56.630Z,15.90
2017-06-16T20:52:25.021Z,15.80
2017-06-16T20:54:54.483Z,15.80
2017-06-16T20:57:22.809Z,15.70
2017-06-16T20:59:51.787Z,15.80
2017-06-16T21:02:20.853Z,15.80
2017-06-16T21:04:49.364Z,15.80
2017-06-16T21:07:17.750Z,15.80
2017-06-16T21:09:46.122Z,15.70
2017-06-16T21:12:14.882Z,15.70
2017-06-16T21:14:43.283Z,15.70
2017-06-16T21:17:12.376Z,15.60
2017-06-16T21:19:40.701Z,15.60
2017-06-16T21:22:14.647Z,15.60
2017-06-16T21:24:43.758Z,15.60
2017-06-16T21:27:12.945Z,15.50
2017-06-16T21:29:41.347Z,15.50
2017-06-16T21:32:10.414Z,15.40
2017-06-16T21:34:39.520Z,15.40
2017-06-16T21:37:08.615Z,15.40
2017-06-16T21:39:37.060Z,15.30
2017-06-16T21:42:05.350Z,15.40
2017-06-16T21:44:33.751Z,15.40
2017-06-16T21:47:02.862Z,15.40
2017-06-16T21:49:31.173Z,15.30
2017-06-16T21:51:59.610Z,15.40
2017-06-16T21:54:27.947Z,15.40
2017-06-16T21:56:56.364Z,15.40
2017-06-16T21:59:24.826Z,15.40
2017-06-16T22:01:54.030Z,15.30
2017-06-16T22:04:23.140Z,15.30
2017-06-16T22:06:51.683Z,15.20
2017-06-16T22:09:20.099Z,15.20
2017-06-16T22:11:48.414Z,15.20
2017-06-16T22:14:16.761Z,15.20
2017-06-16T22:16:45.121Z,15.20
2017-06-16T22:19:14.322Z,15.10
2017-06-16T22:21:43.395Z,15.10
2017-06-16T22:24:11.700Z,15.00
2017-06-16T22:26:40.810Z,14.90
2017-06-16T22:29:09.144Z,14.90
2017-06-16T22:31:37.551Z,14.90
2017-06-16T22:34:06.615Z,14.90
2017-06-16T22:36:34.917Z,14.80
2017-06-16T22:39:04.014Z,14.80
2017-06-16T22:41:32.392Z,14.80
2017-06-16T22:44:00.725Z,14.70
2017-06-16T22:46:29.153Z,14.70
2017-06-16T22:48:57.520Z,14.70
2017-06-16T22:51:26.011Z,14.70
2017-06-16T22:53:55.101Z,14.60
2017-06-16T22:56:24.287Z,14.50
2017-06-16T22:58:53.363Z,14.50
2017-06-16T23:01:21.667Z,14.50
2017-06-16T23:03:50.015Z,14.50
2017-06-16T23:06:18.311Z,14.50
2017-06-16T23:08:46.666Z,14.40
2017-06-16T23:11:14.979Z,14.40
2017-06-16T23:13:44.259Z,14.40
2017-06-16T23:16:12.567Z,14.30
2017-06-16T23:18:41.490Z,14.30
2017-06-16T23:21:09.926Z,14.30
2017-06-16T23:23:38.986Z,14.20
2017-06-16T23:26:08.931Z,14.20
2017-06-16T23:28:38.123Z,14.20
2017-06-16T23:31:06.412Z,14.10
2017-06-16T23:33:34.744Z,14.20
2017-06-16T23:36:03.830Z,14.10
2017-06-16T23:38:32.247Z,14.10
2017-06-16T23:41:01.548Z,14.10
2017-06-16T23:43:29.920Z,14.00
2017-06-16T23:45:59.014Z,14.00
2017-06-16T23:48:28.084Z,14.00
2017-06-16T23:50:56.391Z,14.00
2017-06-16T23:53:25.482Z,14.00
2017-06-16T23:55:53.866Z,13.90
2017-06-16T23:58:22.922Z,14.00
